Taiou Maru — JD3273 — position and weather

sailwx.info

Track history (hours):
 
Tides and Currents Weather Stations Pressure Air Temp Water Temp Dewpoint Dewpoint Depression Visibility Wind Speed Wind Dir Waves Ship Positions

Taiou Maru

Last reported at 2017-Nov-18 07:27 UTC. Time now 2017-Nov-23 05:12 UTC.
Position N 34°59' E 139°27'.

Length 72 m; draft 4.5 m.

Type: Tanker. MMSI: 431003171.

Date/timePositionNaut miles runAvg speedWind from/ knotsBaromVisibWave heightAir tempDewpointWater temp
2017-Nov-18 07:27N 34°59' E 139°27'512.1
2017-Nov-18 07:00N 35°02' E 139°32'612.4
2017-Nov-18 06:30N 35°06' E 139°39'612.2
2017-Nov-18 05:59N 35°10' E 139°44'511.0
2017-Nov-18 05:30N 35°15' E 139°46'611.6
2017-Nov-18 05:00N 35°20' E 139°42'511.0
2017-Nov-18 04:30N 35°25' E 139°44'5 8.6
2017-Nov-18 03:54N 35°30' E 139°46'0 0.9
2017-Nov-18 03:30N 35°31' E 139°46'0 0.0
2017-Nov-18 03:00N 35°31' E 139°46'0 0.0
2017-Nov-18 02:30N 35°31' E 139°46'0 0.0
2017-Nov-18 02:00N 35°31' E 139°46'0 0.0
2017-Nov-18 01:30N 35°31' E 139°46'0 0.0
2017-Nov-18 01:00N 35°31' E 139°46'0 0.0
2017-Nov-18 00:30N 35°31' E 139°46'0 0.0
2017-Nov-18 00:00N 35°31' E 139°46'0 0.0
2017-Nov-17 23:30N 35°31' E 139°46'0 0.0
2017-Nov-17 23:00N 35°31' E 139°46'0 0.1
2017-Nov-17 22:31N 35°31' E 139°46'3 5.7
2017-Nov-17 22:00N 35°29' E 139°49'0 0.0
2017-Nov-17 19:38N 35°29' E 139°49'0 0.0
2017-Nov-17 19:26N 35°29' E 139°49'0 0.1
2017-Nov-17 18:56N 35°29' E 139°49'0 0.0
2017-Nov-17 18:17N 35°29' E 139°49'0 0.0
2017-Nov-17 17:59N 35°29' E 139°49'0 0.0
2017-Nov-17 17:23N 35°29' E 139°49'0 0.0
2017-Nov-17 16:50N 35°29' E 139°49'0 0.0
2017-Nov-17 16:29N 35°29' E 139°49'0 0.1
2017-Nov-17 15:59N 35°29' E 139°49'0 0.1
2017-Nov-17 15:29N 35°29' E 139°49'0 0.1
2017-Nov-17 14:59N 35°29' E 139°49'0 0.1
2017-Nov-17 14:11N 35°29' E 139°49'0 0.0
2017-Nov-17 13:59N 35°29' E 139°49'0 0.0
2017-Nov-17 13:29N 35°29' E 139°49'0 0.1
2017-Nov-17 12:59N 35°29' E 139°49'0 0.0
2017-Nov-17 12:29N 35°29' E 139°49'0 0.0
2017-Nov-17 11:53N 35°29' E 139°49'0 0.1
2017-Nov-17 11:26N 35°29' E 139°49'0 0.0
2017-Nov-17 10:59N 35°29' E 139°49'0 0.0
2017-Nov-17 10:29N 35°29' E 139°49'0 0.0
2017-Nov-17 09:59N 35°29' E 139°49'0 0.0
2017-Nov-17 09:29N 35°29' E 139°49'0 0.0
2017-Nov-17 08:53N 35°29' E 139°49'0 0.1
2017-Nov-17 08:26N 35°29' E 139°49'0 0.0
2017-Nov-17 07:50N 35°29' E 139°49'0 0.0
2017-Nov-17 07:20N 35°29' E 139°49'0 0.2
2017-Nov-17 06:59N 35°29' E 139°49'3 5.8
2017-Nov-17 06:31N 35°31' E 139°46'0 0.0
2017-Nov-17 06:00N 35°31' E 139°46'0 0.0
2017-Nov-17 05:31N 35°31' E 139°46'0 0.0
2017-Nov-17 05:01N 35°31' E 139°46'0 0.0
2017-Nov-17 04:30N 35°31' E 139°46'0 0.0
2017-Nov-17 04:01N 35°31' E 139°46'0 0.0
2017-Nov-17 03:30N 35°31' E 139°46'1 3.0
2017-Nov-17 03:01N 35°30' E 139°48'5 0.7
2017-Nov-16 20:12N 35°30' E 139°53'312.7
2017-Nov-16 19:59N 35°30' E 139°50'4 7.5
2017-Nov-16 19:31N 35°30' E 139°46'0 0.0
2017-Nov-16 18:59N 35°30' E 139°46'0 0.0
2017-Nov-16 18:28N 35°30' E 139°46'0 0.0
2017-Nov-16 17:59N 35°30' E 139°46'0 0.0
2017-Nov-16 17:29N 35°30' E 139°46'0 0.0
2017-Nov-16 16:58N 35°30' E 139°46'0 0.0
2017-Nov-16 16:28N 35°30' E 139°46'0 0.0
2017-Nov-16 15:58N 35°30' E 139°46'0 0.0
2017-Nov-16 15:26N 35°30' E 139°46'0 0.0
2017-Nov-16 14:58N 35°30' E 139°46'0 0.0
2017-Nov-16 14:17N 35°30' E 139°46'0 0.0
2017-Nov-16 13:59N 35°30' E 139°46'0 0.0
2017-Nov-16 13:16N 35°30' E 139°46'0 0.0
2017-Nov-16 12:56N 35°30' E 139°46'0 0.0
2017-Nov-16 12:17N 35°30' E 139°46'0 0.0
2017-Nov-16 11:59N 35°30' E 139°46'0 0.0
2017-Nov-16 11:28N 35°30' E 139°46'0 0.0
2017-Nov-16 10:59N 35°30' E 139°46'0 0.0
2017-Nov-16 10:29N 35°30' E 139°46'0 0.0
2017-Nov-16 09:58N 35°30' E 139°46'0 0.0
2017-Nov-16 09:19N 35°30' E 139°46'0 0.0
2017-Nov-16 08:58N 35°30' E 139°46'0 0.0
2017-Nov-16 08:28N 35°30' E 139°46'0 0.0
2017-Nov-16 07:52N 35°30' E 139°46'0 0.0
2017-Nov-16 07:28N 35°30' E 139°46'0 0.0
2017-Nov-16 06:58N 35°30' E 139°46'0 0.0
2017-Nov-16 06:22N 35°30' E 139°46'0 0.0
2017-Nov-16 05:53N 35°30' E 139°46'0 0.0
2017-Nov-16 05:25N 35°30' E 139°46'0 0.0
2017-Nov-16 04:58N 35°30' E 139°46'0 0.0
2017-Nov-16 04:28N 35°30' E 139°46'0 0.0
2017-Nov-16 03:49N 35°30' E 139°46'0 0.0
2017-Nov-16 03:28N 35°30' E 139°46'0 0.0
2017-Nov-16 02:56N 35°30' E 139°46'0 0.0
2017-Nov-16 02:25N 35°30' E 139°46'0 0.0
2017-Nov-16 01:58N 35°30' E 139°46'0 0.0
2017-Nov-16 01:25N 35°30' E 139°46'0 0.0
2017-Nov-16 00:58N 35°30' E 139°46'0 0.0
2017-Nov-16 00:29N 35°30' E 139°46'1 2.8
2017-Nov-16 00:00N 35°30' E 139°47'4 8.8
2017-Nov-15 23:30N 35°26' E 139°47'612.0
2017-Nov-15 23:00N 35°20' E 139°44'611.2
2017-Nov-15 22:28N 35°15' E 139°47'612.4
2017-Nov-15 22:00N 35°09' E 139°46'612.4
2017-Nov-15 21:30N 35°04' E 139°41'712.9
2017-Nov-15 20:59N 34°60' E 139°35'  
2017-Nov-12 07:45N 35°32' E 139°55'313.2
2017-Nov-12 07:30N 35°31' E 139°51'4 7.9
2017-Nov-12 07:00N 35°31' E 139°46'0 0.0
2017-Nov-12 06:30N 35°31' E 139°46'0 0.0
2017-Nov-12 06:00N 35°31' E 139°46'0 0.0
2017-Nov-12 05:30N 35°31' E 139°46'0 0.0
2017-Nov-12 05:00N 35°31' E 139°46'0 0.0
2017-Nov-12 04:30N 35°31' E 139°46'0 0.0
2017-Nov-12 04:00N 35°31' E 139°46'0 0.0
2017-Nov-12 03:30N 35°31' E 139°46'2 3.6
2017-Nov-12 03:00N 35°30' E 139°48'5 0.1
2017-Nov-10 05:00N 35°31' E 139°54'612.0
2017-Nov-10 04:30N 35°30' E 139°47'1 0.4
2017-Nov-10 02:42N 35°31' E 139°46'0 0.0
2017-Nov-10 02:30N 35°31' E 139°46'0 0.0
2017-Nov-10 02:00N 35°31' E 139°46'0 0.0
2017-Nov-10 01:29N 35°31' E 139°46'0 0.3
2017-Nov-10 01:00N 35°31' E 139°46'4 8.8
2017-Nov-10 00:30N 35°27' E 139°47'612.4
2017-Nov-10 00:00N 35°21' E 139°45'611.6
2017-Nov-09 23:30N 35°15' E 139°47'612.3
2017-Nov-09 23:00N 35°09' E 139°46'  
Track history (hours):
 
Tides and Currents Weather Stations Pressure Air Temp Water Temp Dewpoint Dewpoint Depression Visibility Wind Speed Wind Dir Waves Ship Positions

Taiou Maru

Last reported at 2017-Nov-18 07:27 UTC. Time now 2017-Nov-23 05:12 UTC.
Position N 34°59' E 139°27'.

Length 72 m; draft 4.5 m.

Type: Tanker. MMSI: 431003171.

Date/timePositionNaut miles runAvg speedWind from/ knotsBaromVisibWave heightAir tempDewpointWater temp
2017-Nov-18 07:27N 34°59' E 139°27'512.1
2017-Nov-18 07:00N 35°02' E 139°32'612.4
2017-Nov-18 06:30N 35°06' E 139°39'612.2
2017-Nov-18 05:59N 35°10' E 139°44'511.0
2017-Nov-18 05:30N 35°15' E 139°46'611.6
2017-Nov-18 05:00N 35°20' E 139°42'511.0
2017-Nov-18 04:30N 35°25' E 139°44'5 8.6
2017-Nov-18 03:54N 35°30' E 139°46'0 0.9
2017-Nov-18 03:30N 35°31' E 139°46'0 0.0
2017-Nov-18 03:00N 35°31' E 139°46'0 0.0
2017-Nov-18 02:30N 35°31' E 139°46'0 0.0
2017-Nov-18 02:00N 35°31' E 139°46'0 0.0
2017-Nov-18 01:30N 35°31' E 139°46'0 0.0
2017-Nov-18 01:00N 35°31' E 139°46'0 0.0
2017-Nov-18 00:30N 35°31' E 139°46'0 0.0
2017-Nov-18 00:00N 35°31' E 139°46'0 0.0
2017-Nov-17 23:30N 35°31' E 139°46'0 0.0
2017-Nov-17 23:00N 35°31' E 139°46'0 0.1
2017-Nov-17 22:31N 35°31' E 139°46'3 5.7
2017-Nov-17 22:00N 35°29' E 139°49'0 0.0
2017-Nov-17 19:38N 35°29' E 139°49'0 0.0
2017-Nov-17 19:26N 35°29' E 139°49'0 0.1
2017-Nov-17 18:56N 35°29' E 139°49'0 0.0
2017-Nov-17 18:17N 35°29' E 139°49'0 0.0
2017-Nov-17 17:59N 35°29' E 139°49'0 0.0
2017-Nov-17 17:23N 35°29' E 139°49'0 0.0
2017-Nov-17 16:50N 35°29' E 139°49'0 0.0
2017-Nov-17 16:29N 35°29' E 139°49'0 0.1
2017-Nov-17 15:59N 35°29' E 139°49'0 0.1
2017-Nov-17 15:29N 35°29' E 139°49'0 0.1
2017-Nov-17 14:59N 35°29' E 139°49'0 0.1
2017-Nov-17 14:11N 35°29' E 139°49'0 0.0
2017-Nov-17 13:59N 35°29' E 139°49'0 0.0
2017-Nov-17 13:29N 35°29' E 139°49'0 0.1
2017-Nov-17 12:59N 35°29' E 139°49'0 0.0
2017-Nov-17 12:29N 35°29' E 139°49'0 0.0
2017-Nov-17 11:53N 35°29' E 139°49'0 0.1
2017-Nov-17 11:26N 35°29' E 139°49'0 0.0
2017-Nov-17 10:59N 35°29' E 139°49'0 0.0
2017-Nov-17 10:29N 35°29' E 139°49'0 0.0
2017-Nov-17 09:59N 35°29' E 139°49'0 0.0
2017-Nov-17 09:29N 35°29' E 139°49'0 0.0
2017-Nov-17 08:53N 35°29' E 139°49'0 0.1
2017-Nov-17 08:26N 35°29' E 139°49'0 0.0
2017-Nov-17 07:50N 35°29' E 139°49'0 0.0
2017-Nov-17 07:20N 35°29' E 139°49'0 0.2
2017-Nov-17 06:59N 35°29' E 139°49'3 5.8
2017-Nov-17 06:31N 35°31' E 139°46'0 0.0
2017-Nov-17 06:00N 35°31' E 139°46'0 0.0
2017-Nov-17 05:31N 35°31' E 139°46'0 0.0
2017-Nov-17 05:01N 35°31' E 139°46'0 0.0
2017-Nov-17 04:30N 35°31' E 139°46'0 0.0
2017-Nov-17 04:01N 35°31' E 139°46'0 0.0
2017-Nov-17 03:30N 35°31' E 139°46'1 3.0
2017-Nov-17 03:01N 35°30' E 139°48'5 0.7
2017-Nov-16 20:12N 35°30' E 139°53'312.7
2017-Nov-16 19:59N 35°30' E 139°50'4 7.5
2017-Nov-16 19:31N 35°30' E 139°46'0 0.0
2017-Nov-16 18:59N 35°30' E 139°46'0 0.0
2017-Nov-16 18:28N 35°30' E 139°46'0 0.0
2017-Nov-16 17:59N 35°30' E 139°46'0 0.0
2017-Nov-16 17:29N 35°30' E 139°46'0 0.0
2017-Nov-16 16:58N 35°30' E 139°46'0 0.0
2017-Nov-16 16:28N 35°30' E 139°46'0 0.0
2017-Nov-16 15:58N 35°30' E 139°46'0 0.0
2017-Nov-16 15:26N 35°30' E 139°46'0 0.0
2017-Nov-16 14:58N 35°30' E 139°46'0 0.0
2017-Nov-16 14:17N 35°30' E 139°46'0 0.0
2017-Nov-16 13:59N 35°30' E 139°46'0 0.0
2017-Nov-16 13:16N 35°30' E 139°46'0 0.0
2017-Nov-16 12:56N 35°30' E 139°46'0 0.0
2017-Nov-16 12:17N 35°30' E 139°46'0 0.0
2017-Nov-16 11:59N 35°30' E 139°46'0 0.0
2017-Nov-16 11:28N 35°30' E 139°46'0 0.0
2017-Nov-16 10:59N 35°30' E 139°46'0 0.0
2017-Nov-16 10:29N 35°30' E 139°46'0 0.0
2017-Nov-16 09:58N 35°30' E 139°46'0 0.0
2017-Nov-16 09:19N 35°30' E 139°46'0 0.0
2017-Nov-16 08:58N 35°30' E 139°46'0 0.0
2017-Nov-16 08:28N 35°30' E 139°46'0 0.0
2017-Nov-16 07:52N 35°30' E 139°46'0 0.0
2017-Nov-16 07:28N 35°30' E 139°46'0 0.0
2017-Nov-16 06:58N 35°30' E 139°46'0 0.0
2017-Nov-16 06:22N 35°30' E 139°46'0 0.0
2017-Nov-16 05:53N 35°30' E 139°46'0 0.0
2017-Nov-16 05:25N 35°30' E 139°46'0 0.0
2017-Nov-16 04:58N 35°30' E 139°46'0 0.0
2017-Nov-16 04:28N 35°30' E 139°46'0 0.0
2017-Nov-16 03:49N 35°30' E 139°46'0 0.0
2017-Nov-16 03:28N 35°30' E 139°46'0 0.0
2017-Nov-16 02:56N 35°30' E 139°46'0 0.0
2017-Nov-16 02:25N 35°30' E 139°46'0 0.0
2017-Nov-16 01:58N 35°30' E 139°46'0 0.0
2017-Nov-16 01:25N 35°30' E 139°46'0 0.0
2017-Nov-16 00:58N 35°30' E 139°46'0 0.0
2017-Nov-16 00:29N 35°30' E 139°46'1 2.8
2017-Nov-16 00:00N 35°30' E 139°47'4 8.8
2017-Nov-15 23:30N 35°26' E 139°47'612.0
2017-Nov-15 23:00N 35°20' E 139°44'611.2
2017-Nov-15 22:28N 35°15' E 139°47'612.4
2017-Nov-15 22:00N 35°09' E 139°46'612.4
2017-Nov-15 21:30N 35°04' E 139°41'712.9
2017-Nov-15 20:59N 34°60' E 139°35'  
2017-Nov-12 07:45N 35°32' E 139°55'313.2
2017-Nov-12 07:30N 35°31' E 139°51'4 7.9
2017-Nov-12 07:00N 35°31' E 139°46'0 0.0
2017-Nov-12 06:30N 35°31' E 139°46'0 0.0
2017-Nov-12 06:00N 35°31' E 139°46'0 0.0
2017-Nov-12 05:30N 35°31' E 139°46'0 0.0
2017-Nov-12 05:00N 35°31' E 139°46'0 0.0
2017-Nov-12 04:30N 35°31' E 139°46'0 0.0
2017-Nov-12 04:00N 35°31' E 139°46'0 0.0
2017-Nov-12 03:30N 35°31' E 139°46'2 3.6
2017-Nov-12 03:00N 35°30' E 139°48'5 0.1
2017-Nov-10 05:00N 35°31' E 139°54'612.0
2017-Nov-10 04:30N 35°30' E 139°47'1 0.4
2017-Nov-10 02:42N 35°31' E 139°46'0 0.0
2017-Nov-10 02:30N 35°31' E 139°46'0 0.0
2017-Nov-10 02:00N 35°31' E 139°46'0 0.0
2017-Nov-10 01:29N 35°31' E 139°46'0 0.3
2017-Nov-10 01:00N 35°31' E 139°46'4 8.8
2017-Nov-10 00:30N 35°27' E 139°47'612.4
2017-Nov-10 00:00N 35°21' E 139°45'611.6
2017-Nov-09 23:30N 35°15' E 139°47'612.3
2017-Nov-09 23:00N 35°09' E 139°46'  

Dump ship's entire track history